sensor_id;sensor_type;location;lat;lon;timestamp;P1;durP1;ratioP1;P2;durP2;ratioP2
10063;SDS011;5071;52.360;13.134;2022-08-25T00:02:34;5.97;;;4.17;;
10063;SDS011;5071;52.360;13.134;2022-08-25T00:07:37;6.23;;;4.30;;
10063;SDS011;5071;52.360;13.134;2022-08-25T00:12:41;6.47;;;4.97;;
10063;SDS011;5071;52.360;13.134;2022-08-25T00:17:42;8.03;;;4.47;;
10063;SDS011;5071;52.360;13.134;2022-08-25T00:22:45;10.13;;;5.07;;
10063;SDS011;5071;52.360;13.134;2022-08-25T00:27:48;6.97;;;4.73;;
10063;SDS011;5071;52.360;13.134;2022-08-25T00:32:51;6.40;;;5.20;;
10063;SDS011;5071;52.360;13.134;2022-08-25T00:37:57;5.93;;;4.20;;
10063;SDS011;5071;52.360;13.134;2022-08-25T00:43:01;4.60;;;4.07;;
10063;SDS011;5071;52.360;13.134;2022-08-25T00:48:04;10.10;;;4.53;;
10063;SDS011;5071;52.360;13.134;2022-08-25T00:53:07;5.77;;;4.07;;
10063;SDS011;5071;52.360;13.134;2022-08-25T00:58:12;5.90;;;4.00;;
10063;SDS011;5071;52.360;13.134;2022-08-25T01:03:18;6.27;;;4.63;;
10063;SDS011;5071;52.360;13.134;2022-08-25T01:08:25;4.90;;;4.40;;
10063;SDS011;5071;52.360;13.134;2022-08-25T01:13:33;5.80;;;4.43;;
10063;SDS011;5071;52.360;13.134;2022-08-25T01:18:42;13.17;;;5.53;;
10063;SDS011;5071;52.360;13.134;2022-08-25T01:23:49;5.80;;;4.30;;
10063;SDS011;5071;52.360;13.134;2022-08-25T01:28:52;5.77;;;4.77;;
10063;SDS011;5071;52.360;13.134;2022-08-25T01:33:55;5.47;;;4.27;;
10063;SDS011;5071;52.360;13.134;2022-08-25T01:38:59;6.00;;;4.57;;
10063;SDS011;5071;52.360;13.134;2022-08-25T01:44:03;7.10;;;5.00;;
10063;SDS011;5071;52.360;13.134;2022-08-25T01:49:09;6.57;;;5.10;;
10063;SDS011;5071;52.360;13.134;2022-08-25T01:54:12;10.10;;;4.83;;
10063;SDS011;5071;52.360;13.134;2022-08-25T01:59:14;7.67;;;5.47;;
10063;SDS011;5071;52.360;13.134;2022-08-25T02:04:24;5.43;;;4.93;;
10063;SDS011;5071;52.360;13.134;2022-08-25T02:09:28;5.57;;;4.97;;
10063;SDS011;5071;52.360;13.134;2022-08-25T02:14:30;6.87;;;5.27;;
10063;SDS011;5071;52.360;13.134;2022-08-25T02:19:32;8.50;;;5.57;;
10063;SDS011;5071;52.360;13.134;2022-08-25T02:24:36;6.40;;;5.30;;
10063;SDS011;5071;52.360;13.134;2022-08-25T02:29:38;5.90;;;5.27;;
10063;SDS011;5071;52.360;13.134;2022-08-25T02:34:40;7.53;;;6.00;;
10063;SDS011;5071;52.360;13.134;2022-08-25T02:39:43;8.50;;;5.93;;
10063;SDS011;5071;52.360;13.134;2022-08-25T02:44:46;9.77;;;6.30;;
10063;SDS011;5071;52.360;13.134;2022-08-25T02:49:47;7.30;;;5.93;;
10063;SDS011;5071;52.360;13.134;2022-08-25T02:54:51;7.37;;;5.17;;
10063;SDS011;5071;52.360;13.134;2022-08-25T02:59:53;6.70;;;5.27;;
10063;SDS011;5071;52.360;13.134;2022-08-25T03:04:55;8.23;;;6.60;;
10063;SDS011;5071;52.360;13.134;2022-08-25T03:09:58;7.40;;;6.03;;
10063;SDS011;5071;52.360;13.134;2022-08-25T03:15:01;7.67;;;5.87;;
10063;SDS011;5071;52.360;13.134;2022-08-25T03:20:03;6.77;;;5.60;;
10063;SDS011;5071;52.360;13.134;2022-08-25T03:25:08;8.67;;;5.93;;
10063;SDS011;5071;52.360;13.134;2022-08-25T03:30:11;8.77;;;6.10;;
10063;SDS011;5071;52.360;13.134;2022-08-25T03:35:13;8.60;;;6.83;;
10063;SDS011;5071;52.360;13.134;2022-08-25T03:40:17;7.00;;;6.30;;
10063;SDS011;5071;52.360;13.134;2022-08-25T03:45:19;7.93;;;6.83;;
10063;SDS011;5071;52.360;13.134;2022-08-25T03:50:22;8.87;;;7.13;;
10063;SDS011;5071;52.360;13.134;2022-08-25T03:55:26;9.70;;;7.20;;
10063;SDS011;5071;52.360;13.134;2022-08-25T04:00:31;8.53;;;6.50;;
10063;SDS011;5071;52.360;13.134;2022-08-25T04:05:33;8.63;;;6.70;;
10063;SDS011;5071;52.360;13.134;2022-08-25T04:10:36;12.00;;;7.47;;
10063;SDS011;5071;52.360;13.134;2022-08-25T04:15:40;10.20;;;7.40;;
10063;SDS011;5071;52.360;13.134;2022-08-25T04:20:42;9.63;;;7.20;;
10063;SDS011;5071;52.360;13.134;2022-08-25T04:25:48;11.30;;;8.77;;
10063;SDS011;5071;52.360;13.134;2022-08-25T04:30:50;9.70;;;8.13;;
10063;SDS011;5071;52.360;13.134;2022-08-25T04:35:52;17.53;;;8.83;;
10063;SDS011;5071;52.360;13.134;2022-08-25T04:40:56;10.07;;;7.87;;
10063;SDS011;5071;52.360;13.134;2022-08-25T04:46:03;9.97;;;7.77;;
10063;SDS011;5071;52.360;13.134;2022-08-25T04:51:06;10.40;;;7.00;;
10063;SDS011;5071;52.360;13.134;2022-08-25T04:56:12;9.80;;;6.60;;
10063;SDS011;5071;52.360;13.134;2022-08-25T05:01:18;8.40;;;6.60;;
10063;SDS011;5071;52.360;13.134;2022-08-25T05:06:22;9.90;;;7.50;;
10063;SDS011;5071;52.360;13.134;2022-08-25T05:11:26;10.40;;;7.53;;
10063;SDS011;5071;52.360;13.134;2022-08-25T05:16:28;11.20;;;7.43;;
10063;SDS011;5071;52.360;13.134;2022-08-25T05:21:31;8.20;;;7.00;;
10063;SDS011;5071;52.360;13.134;2022-08-25T05:26:36;7.03;;;6.32;;
10063;SDS011;5071;52.360;13.134;2022-08-25T05:31:39;7.18;;;5.63;;
10063;SDS011;5071;52.360;13.134;2022-08-25T05:36:47;6.68;;;5.63;;
10063;SDS011;5071;52.360;13.134;2022-08-25T05:41:51;9.25;;;6.00;;
10063;SDS011;5071;52.360;13.134;2022-08-25T05:46:53;10.40;;;5.07;;
10063;SDS011;5071;52.360;13.134;2022-08-25T05:51:54;6.28;;;4.32;;
10063;SDS011;5071;52.360;13.134;2022-08-25T05:56:58;6.15;;;4.25;;
10063;SDS011;5071;52.360;13.134;2022-08-25T06:01:59;5.60;;;4.43;;
10063;SDS011;5071;52.360;13.134;2022-08-25T06:07:02;5.05;;;3.95;;
10063;SDS011;5071;52.360;13.134;2022-08-25T06:12:05;8.63;;;4.28;;
10063;SDS011;5071;52.360;13.134;2022-08-25T06:17:08;5.47;;;4.40;;
10063;SDS011;5071;52.360;13.134;2022-08-25T06:22:11;6.57;;;4.13;;
10063;SDS011;5071;52.360;13.134;2022-08-25T06:27:14;5.13;;;4.65;;
10063;SDS011;5071;52.360;13.134;2022-08-25T06:32:15;5.68;;;4.95;;
10063;SDS011;5071;52.360;13.134;2022-08-25T06:37:18;10.40;;;5.88;;
10063;SDS011;5071;52.360;13.134;2022-08-25T06:42:27;8.85;;;6.40;;
10063;SDS011;5071;52.360;13.134;2022-08-25T06:47:28;14.65;;;6.90;;
10063;SDS011;5071;52.360;13.134;2022-08-25T06:52:31;10.93;;;7.18;;
10063;SDS011;5071;52.360;13.134;2022-08-25T06:57:34;13.13;;;7.90;;
10063;SDS011;5071;52.360;13.134;2022-08-25T07:02:37;10.35;;;8.13;;
10063;SDS011;5071;52.360;13.134;2022-08-25T07:07:39;13.63;;;9.55;;
10063;SDS011;5071;52.360;13.134;2022-08-25T07:12:46;14.52;;;11.82;;
10063;SDS011;5071;52.360;13.134;2022-08-25T07:17:48;15.45;;;11.77;;
10063;SDS011;5071;52.360;13.134;2022-08-25T07:22:50;17.40;;;11.95;;
10063;SDS011;5071;52.360;13.134;2022-08-25T07:27:54;17.33;;;10.65;;
10063;SDS011;5071;52.360;13.134;2022-08-25T07:32:59;15.02;;;10.52;;
10063;SDS011;5071;52.360;13.134;2022-08-25T07:38:07;14.93;;;10.80;;
10063;SDS011;5071;52.360;13.134;2022-08-25T07:43:12;14.63;;;9.60;;
10063;SDS011;5071;52.360;13.134;2022-08-25T07:48:14;12.45;;;8.55;;
10063;SDS011;5071;52.360;13.134;2022-08-25T07:53:18;11.35;;;8.52;;
10063;SDS011;5071;52.360;13.134;2022-08-25T07:58:24;10.68;;;8.23;;
10063;SDS011;5071;52.360;13.134;2022-08-25T08:03:26;10.65;;;8.23;;
10063;SDS011;5071;52.360;13.134;2022-08-25T08:08:46;10.68;;;8.32;;
10063;SDS011;5071;52.360;13.134;2022-08-25T08:13:50;9.57;;;6.97;;
10063;SDS011;5071;52.360;13.134;2022-08-25T08:18:53;10.73;;;8.00;;
10063;SDS011;5071;52.360;13.134;2022-08-25T08:23:57;10.57;;;7.72;;
10063;SDS011;5071;52.360;13.134;2022-08-25T08:29:01;12.77;;;7.57;;
10063;SDS011;5071;52.360;13.134;2022-08-25T08:34:03;10.73;;;8.40;;
10063;SDS011;5071;52.360;13.134;2022-08-25T08:39:05;9.65;;;8.38;;
10063;SDS011;5071;52.360;13.134;2022-08-25T08:44:11;13.38;;;9.45;;
10063;SDS011;5071;52.360;13.134;2022-08-25T08:49:21;11.00;;;9.45;;
10063;SDS011;5071;52.360;13.134;2022-08-25T08:54:30;18.70;;;9.93;;
10063;SDS011;5071;52.360;13.134;2022-08-25T08:59:42;17.13;;;8.70;;
10063;SDS011;5071;52.360;13.134;2022-08-25T09:04:50;12.50;;;9.20;;
10063;SDS011;5071;52.360;13.134;2022-08-25T09:09:56;15.32;;;8.68;;
10063;SDS011;5071;52.360;13.134;2022-08-25T09:15:03;11.55;;;7.50;;
10063;SDS011;5071;52.360;13.134;2022-08-25T09:20:19;10.27;;;7.03;;
10063;SDS011;5071;52.360;13.134;2022-08-25T09:25:38;9.63;;;6.43;;
10063;SDS011;5071;52.360;13.134;2022-08-25T09:30:57;8.80;;;7.10;;
10063;SDS011;5071;52.360;13.134;2022-08-25T09:36:02;8.77;;;6.65;;
10063;SDS011;5071;52.360;13.134;2022-08-25T09:41:07;6.55;;;5.93;;
10063;SDS011;5071;52.360;13.134;2022-08-25T09:46:11;12.18;;;7.03;;
10063;SDS011;5071;52.360;13.134;2022-08-25T09:51:16;12.45;;;6.65;;
10063;SDS011;5071;52.360;13.134;2022-08-25T09:56:21;8.05;;;6.05;;
10063;SDS011;5071;52.360;13.134;2022-08-25T10:01:27;13.93;;;7.13;;
10063;SDS011;5071;52.360;13.134;2022-08-25T10:06:41;8.70;;;6.45;;
10063;SDS011;5071;52.360;13.134;2022-08-25T10:11:45;7.00;;;6.30;;
10063;SDS011;5071;52.360;13.134;2022-08-25T10:16:49;11.65;;;5.60;;
10063;SDS011;5071;52.360;13.134;2022-08-25T10:22:01;10.50;;;6.47;;
10063;SDS011;5071;52.360;13.134;2022-08-25T10:27:09;8.75;;;6.30;;
10063;SDS011;5071;52.360;13.134;2022-08-25T10:32:21;10.27;;;5.65;;
10063;SDS011;5071;52.360;13.134;2022-08-25T10:37:35;6.88;;;5.85;;
10063;SDS011;5071;52.360;13.134;2022-08-25T10:42:46;7.88;;;6.25;;
10063;SDS011;5071;52.360;13.134;2022-08-25T10:53:54;7.03;;;5.38;;
10063;SDS011;5071;52.360;13.134;2022-08-25T10:59:06;6.03;;;5.20;;
10063;SDS011;5071;52.360;13.134;2022-08-25T11:04:17;8.80;;;5.43;;
10063;SDS011;5071;52.360;13.134;2022-08-25T11:09:28;6.82;;;5.65;;
10063;SDS011;5071;52.360;13.134;2022-08-25T11:14:38;8.20;;;4.78;;
10063;SDS011;5071;52.360;13.134;2022-08-25T11:19:43;8.43;;;5.63;;
10063;SDS011;5071;52.360;13.134;2022-08-25T11:24:54;5.95;;;5.20;;
10063;SDS011;5071;52.360;13.134;2022-08-25T11:30:05;6.43;;;5.10;;
10063;SDS011;5071;52.360;13.134;2022-08-25T11:35:10;10.13;;;5.18;;
10063;SDS011;5071;52.360;13.134;2022-08-25T11:45:53;5.22;;;4.65;;
10063;SDS011;5071;52.360;13.134;2022-08-25T11:51:07;9.27;;;5.00;;
10063;SDS011;5071;52.360;13.134;2022-08-25T12:07:29;9.85;;;5.28;;
10063;SDS011;5071;52.360;13.134;2022-08-25T12:12:56;7.90;;;5.05;;
10063;SDS011;5071;52.360;13.134;2022-08-25T12:18:09;7.28;;;4.95;;
10063;SDS011;5071;52.360;13.134;2022-08-25T12:23:13;7.40;;;5.47;;
10063;SDS011;5071;52.360;13.134;2022-08-25T12:28:25;13.85;;;5.55;;
10063;SDS011;5071;52.360;13.134;2022-08-25T12:33:41;10.27;;;5.50;;
10063;SDS011;5071;52.360;13.134;2022-08-25T12:38:50;7.90;;;4.95;;
10063;SDS011;5071;52.360;13.134;2022-08-25T12:44:08;7.93;;;5.05;;
10063;SDS011;5071;52.360;13.134;2022-08-25T12:49:28;10.48;;;5.43;;
10063;SDS011;5071;52.360;13.134;2022-08-25T12:54:38;7.40;;;4.25;;
10063;SDS011;5071;52.360;13.134;2022-08-25T12:59:50;10.60;;;4.30;;
10063;SDS011;5071;52.360;13.134;2022-08-25T13:10:24;10.00;;;4.93;;
10063;SDS011;5071;52.360;13.134;2022-08-25T13:15:36;8.57;;;4.60;;
10063;SDS011;5071;52.360;13.134;2022-08-25T13:20:41;9.98;;;5.68;;
10063;SDS011;5071;52.360;13.134;2022-08-25T13:25:46;8.50;;;4.72;;
10063;SDS011;5071;52.360;13.134;2022-08-25T13:30:59;7.82;;;4.05;;
10063;SDS011;5071;52.360;13.134;2022-08-25T13:36:06;9.88;;;4.93;;
10063;SDS011;5071;52.360;13.134;2022-08-25T13:41:21;8.73;;;4.50;;
10063;SDS011;5071;52.360;13.134;2022-08-25T13:46:31;7.20;;;4.60;;
10063;SDS011;5071;52.360;13.134;2022-08-25T13:51:36;8.95;;;4.70;;
10063;SDS011;5071;52.360;13.134;2022-08-25T13:56:40;11.02;;;4.53;;
10063;SDS011;5071;52.360;13.134;2022-08-25T14:01:44;8.23;;;4.15;;
10063;SDS011;5071;52.360;13.134;2022-08-25T14:12:36;10.65;;;4.55;;
10063;SDS011;5071;52.360;13.134;2022-08-25T14:17:43;9.63;;;3.88;;
10063;SDS011;5071;52.360;13.134;2022-08-25T14:22:47;12.02;;;5.03;;
10063;SDS011;5071;52.360;13.134;2022-08-25T14:27:55;7.30;;;4.20;;
10063;SDS011;5071;52.360;13.134;2022-08-25T14:33:16;4.85;;;4.00;;
10063;SDS011;5071;52.360;13.134;2022-08-25T14:38:20;7.50;;;3.97;;
10063;SDS011;5071;52.360;13.134;2022-08-25T14:43:23;11.73;;;4.40;;
10063;SDS011;5071;52.360;13.134;2022-08-25T14:48:38;7.85;;;4.47;;
10063;SDS011;5071;52.360;13.134;2022-08-25T14:53:43;6.00;;;4.88;;
10063;SDS011;5071;52.360;13.134;2022-08-25T14:58:44;7.43;;;4.10;;
10063;SDS011;5071;52.360;13.134;2022-08-25T15:03:54;12.07;;;4.70;;
10063;SDS011;5071;52.360;13.134;2022-08-25T15:08:58;9.80;;;4.05;;
10063;SDS011;5071;52.360;13.134;2022-08-25T15:14:00;5.18;;;4.35;;
10063;SDS011;5071;52.360;13.134;2022-08-25T15:19:04;9.30;;;4.97;;
10063;SDS011;5071;52.360;13.134;2022-08-25T15:24:08;8.02;;;3.63;;
10063;SDS011;5071;52.360;13.134;2022-08-25T15:29:12;7.25;;;3.95;;
10063;SDS011;5071;52.360;13.134;2022-08-25T15:34:17;9.43;;;4.32;;
10063;SDS011;5071;52.360;13.134;2022-08-25T15:39:19;6.43;;;3.45;;
10063;SDS011;5071;52.360;13.134;2022-08-25T15:44:21;6.45;;;3.75;;
10063;SDS011;5071;52.360;13.134;2022-08-25T15:49:31;4.63;;;3.90;;
10063;SDS011;5071;52.360;13.134;2022-08-25T15:54:33;13.02;;;4.10;;
10063;SDS011;5071;52.360;13.134;2022-08-25T15:59:36;6.40;;;3.70;;
10063;SDS011;5071;52.360;13.134;2022-08-25T16:04:43;7.60;;;4.20;;
10063;SDS011;5071;52.360;13.134;2022-08-25T16:09:45;7.75;;;4.75;;
10063;SDS011;5071;52.360;13.134;2022-08-25T16:14:47;5.63;;;3.80;;
10063;SDS011;5071;52.360;13.134;2022-08-25T16:19:53;7.30;;;3.90;;
10063;SDS011;5071;52.360;13.134;2022-08-25T16:24:55;4.43;;;3.25;;
10063;SDS011;5071;52.360;13.134;2022-08-25T16:29:57;5.43;;;3.35;;
10063;SDS011;5071;52.360;13.134;2022-08-25T16:35:02;12.68;;;3.88;;
10063;SDS011;5071;52.360;13.134;2022-08-25T16:40:11;6.32;;;3.58;;
10063;SDS011;5071;52.360;13.134;2022-08-25T16:45:15;8.40;;;3.65;;
10063;SDS011;5071;52.360;13.134;2022-08-25T16:50:19;11.55;;;4.43;;
10063;SDS011;5071;52.360;13.134;2022-08-25T16:55:20;5.70;;;3.60;;
10063;SDS011;5071;52.360;13.134;2022-08-25T17:00:24;8.23;;;4.07;;
10063;SDS011;5071;52.360;13.134;2022-08-25T17:05:30;9.73;;;3.33;;
10063;SDS011;5071;52.360;13.134;2022-08-25T17:10:35;14.38;;;7.10;;
10063;SDS011;5071;52.360;13.134;2022-08-25T17:15:39;12.40;;;4.80;;
10063;SDS011;5071;52.360;13.134;2022-08-25T17:20:44;9.35;;;4.93;;
10063;SDS011;5071;52.360;13.134;2022-08-25T17:25:47;9.32;;;4.40;;
10063;SDS011;5071;52.360;13.134;2022-08-25T17:30:50;13.43;;;4.60;;
10063;SDS011;5071;52.360;13.134;2022-08-25T17:35:53;8.27;;;4.10;;
10063;SDS011;5071;52.360;13.134;2022-08-25T17:40:58;7.65;;;4.07;;
10063;SDS011;5071;52.360;13.134;2022-08-25T17:46:02;10.13;;;4.40;;
10063;SDS011;5071;52.360;13.134;2022-08-25T17:51:07;9.60;;;3.80;;
10063;SDS011;5071;52.360;13.134;2022-08-25T17:56:11;8.30;;;4.28;;
10063;SDS011;5071;52.360;13.134;2022-08-25T18:01:15;7.82;;;3.78;;
10063;SDS011;5071;52.360;13.134;2022-08-25T18:06:21;7.38;;;3.63;;
10063;SDS011;5071;52.360;13.134;2022-08-25T18:11:23;5.93;;;4.30;;
10063;SDS011;5071;52.360;13.134;2022-08-25T18:16:25;9.63;;;4.47;;
10063;SDS011;5071;52.360;13.134;2022-08-25T18:21:30;6.50;;;3.60;;
10063;SDS011;5071;52.360;13.134;2022-08-25T18:26:32;7.22;;;4.40;;
10063;SDS011;5071;52.360;13.134;2022-08-25T18:31:35;6.25;;;3.90;;
10063;SDS011;5071;52.360;13.134;2022-08-25T18:36:38;9.32;;;4.85;;
10063;SDS011;5071;52.360;13.134;2022-08-25T18:41:41;9.27;;;4.40;;
10063;SDS011;5071;52.360;13.134;2022-08-25T18:46:46;9.50;;;4.05;;
10063;SDS011;5071;52.360;13.134;2022-08-25T18:51:49;4.63;;;3.80;;
10063;SDS011;5071;52.360;13.134;2022-08-25T18:56:52;7.30;;;4.38;;
10063;SDS011;5071;52.360;13.134;2022-08-25T19:01:54;10.27;;;4.25;;
10063;SDS011;5071;52.360;13.134;2022-08-25T19:06:59;5.28;;;4.25;;
10063;SDS011;5071;52.360;13.134;2022-08-25T19:12:02;9.32;;;4.93;;
10063;SDS011;5071;52.360;13.134;2022-08-25T19:17:05;10.48;;;4.38;;
10063;SDS011;5071;52.360;13.134;2022-08-25T19:22:09;11.73;;;5.55;;
10063;SDS011;5071;52.360;13.134;2022-08-25T19:27:31;12.20;;;5.35;;
10063;SDS011;5071;52.360;13.134;2022-08-25T19:32:33;9.88;;;4.72;;
10063;SDS011;5071;52.360;13.134;2022-08-25T19:37:38;9.00;;;5.05;;
10063;SDS011;5071;52.360;13.134;2022-08-25T19:42:40;12.00;;;4.88;;
10063;SDS011;5071;52.360;13.134;2022-08-25T19:47:42;7.78;;;5.30;;
10063;SDS011;5071;52.360;13.134;2022-08-25T19:52:46;8.43;;;4.63;;
10063;SDS011;5071;52.360;13.134;2022-08-25T19:57:50;7.78;;;5.30;;
10063;SDS011;5071;52.360;13.134;2022-08-25T20:02:53;8.55;;;5.65;;
10063;SDS011;5071;52.360;13.134;2022-08-25T20:07:57;10.90;;;5.15;;
10063;SDS011;5071;52.360;13.134;2022-08-25T20:13:00;9.70;;;5.75;;
10063;SDS011;5071;52.360;13.134;2022-08-25T20:18:02;9.68;;;5.55;;
10063;SDS011;5071;52.360;13.134;2022-08-25T20:23:06;10.00;;;5.22;;
10063;SDS011;5071;52.360;13.134;2022-08-25T20:28:08;9.38;;;5.85;;
10063;SDS011;5071;52.360;13.134;2022-08-25T20:33:19;10.25;;;5.43;;
10063;SDS011;5071;52.360;13.134;2022-08-25T20:38:25;10.35;;;5.47;;
10063;SDS011;5071;52.360;13.134;2022-08-25T20:43:27;14.73;;;6.63;;
10063;SDS011;5071;52.360;13.134;2022-08-25T20:48:29;10.88;;;6.00;;
10063;SDS011;5071;52.360;13.134;2022-08-25T20:53:34;12.48;;;5.95;;
10063;SDS011;5071;52.360;13.134;2022-08-25T20:58:37;13.02;;;6.90;;
10063;SDS011;5071;52.360;13.134;2022-08-25T21:03:41;9.75;;;6.72;;
10063;SDS011;5071;52.360;13.134;2022-08-25T21:08:44;14.98;;;6.65;;
10063;SDS011;5071;52.360;13.134;2022-08-25T21:13:47;11.77;;;8.40;;
10063;SDS011;5071;52.360;13.134;2022-08-25T21:18:49;9.75;;;5.95;;
10063;SDS011;5071;52.360;13.134;2022-08-25T21:23:53;7.90;;;6.18;;
10063;SDS011;5071;52.360;13.134;2022-08-25T21:28:55;9.02;;;6.30;;
10063;SDS011;5071;52.360;13.134;2022-08-25T21:33:58;8.27;;;5.75;;
10063;SDS011;5071;52.360;13.134;2022-08-25T21:39:03;10.95;;;6.22;;
10063;SDS011;5071;52.360;13.134;2022-08-25T21:44:06;12.32;;;6.93;;
10063;SDS011;5071;52.360;13.134;2022-08-25T21:49:07;12.90;;;6.20;;
10063;SDS011;5071;52.360;13.134;2022-08-25T21:54:11;14.57;;;8.07;;
10063;SDS011;5071;52.360;13.134;2022-08-25T21:59:17;11.75;;;6.72;;
10063;SDS011;5071;52.360;13.134;2022-08-25T22:04:20;12.48;;;7.15;;
10063;SDS011;5071;52.360;13.134;2022-08-25T22:09:25;7.43;;;6.50;;
10063;SDS011;5071;52.360;13.134;2022-08-25T22:14:28;15.07;;;7.18;;
10063;SDS011;5071;52.360;13.134;2022-08-25T22:19:31;13.85;;;8.23;;
10063;SDS011;5071;52.360;13.134;2022-08-25T22:24:35;8.90;;;7.45;;
10063;SDS011;5071;52.360;13.134;2022-08-25T22:29:37;11.40;;;7.55;;
10063;SDS011;5071;52.360;13.134;2022-08-25T22:34:40;12.77;;;7.60;;
10063;SDS011;5071;52.360;13.134;2022-08-25T22:39:45;11.45;;;7.97;;
10063;SDS011;5071;52.360;13.134;2022-08-25T22:44:48;14.38;;;7.45;;
10063;SDS011;5071;52.360;13.134;2022-08-25T22:49:50;13.70;;;7.68;;
10063;SDS011;5071;52.360;13.134;2022-08-25T22:54:54;12.02;;;6.80;;
10063;SDS011;5071;52.360;13.134;2022-08-25T22:59:55;10.95;;;7.15;;
10063;SDS011;5071;52.360;13.134;2022-08-25T23:04:58;11.88;;;7.78;;
10063;SDS011;5071;52.360;13.134;2022-08-25T23:10:03;8.93;;;7.28;;
10063;SDS011;5071;52.360;13.134;2022-08-25T23:15:07;9.73;;;6.72;;
10063;SDS011;5071;52.360;13.134;2022-08-25T23:20:10;12.02;;;7.18;;
10063;SDS011;5071;52.360;13.134;2022-08-25T23:25:13;10.05;;;6.63;;
10063;SDS011;5071;52.360;13.134;2022-08-25T23:30:16;7.47;;;6.55;;
10063;SDS011;5071;52.360;13.134;2022-08-25T23:35:18;12.90;;;7.05;;
10063;SDS011;5071;52.360;13.134;2022-08-25T23:40:22;8.98;;;6.70;;
10063;SDS011;5071;52.360;13.134;2022-08-25T23:45:25;9.05;;;6.57;;
10063;SDS011;5071;52.360;13.134;2022-08-25T23:50:27;7.47;;;5.93;;
10063;SDS011;5071;52.360;13.134;2022-08-25T23:55:31;8.30;;;6.72;;
